Main page
METAR-TAF:

METAR-TAF

Airports :

Istres-Le Tubé Air Base

Istres, France

latitude: 43-31N, longitude: 004-56E, elevation: 23 m

Current weather observation

The report was made 29 minutes ago, at 21:30 UTC
Wind 2 kt from the East/Northeast
Temperature 12°C
Humidity 67%
Pressure 1023 hPa
Visibility 10 km or more

METAR: LFMI 092130Z AUTO 07002KT 9999 NCD 12/06 Q1023

Time: 23:59 (21:59 UTC)

Forecast

The report was made 7 hours and 37 minutes ago, at 14:22 UTC
Forecast valid from 09 at 15 UTC to 10 at 15 UTC
Wind 10 kt from the Southwest
Visibility 10 km or more
no clouds below 1500 m and no cumulonimbus
Becoming
from 09 at 17 UTC to 09 at 19 UTC
Wind 3 kt from variable directions
Becoming
from 10 at 11 UTC to 10 at 13 UTC
Wind 10 kt from the West/Southwest

TAF: LFMI 091422Z 0915/1015 23010KT CAVOK BECMG 0917/0919 VRB03KT BECMG 1011/1013 24010KT

Weather observations and forecasts of more than 4000 airports (METAR and TAF reports).

The available stations are represented by yellow and red dots on the map.

Hover mouse over dot to see the name of the station.

Then click to see weather observations and forecasts.

To change the map : click on the green buttons with a black cross to zoom in, on the green button with a dash to zoom out, or on the green arrows for adjacent maps.


METAR-TAF: